Hyde Park, UT (84318)

11:21 AM MST on March 06, 2015 (GMT -0700)
Greystone | Change Station
CLOSE
Current Station
Personal Weather Station
Location: Hyde Park, UT
Elevation: 4948 ft
Nearby Weather Stations

Elev 4948 ft 41.81 °N, 111.80 °W | Updated 56 seconds ago

Clear
Clear
42.1 °F
Feels Like 42 °F
N
2.0
Wind Variable Wind from WNW
Gusts 2.0 mph

Today
High -- | Low -- °F
--% Chance of Precip.
Yesterday
High -- | Low -- °F
Precip. -- in
6:54 AM 6:23 PM
Full, 99% visible
Pressure 30.50 in
Visibility 10.0 miles
Clouds Clear
Windchill 42 °F
Dew Point 23 °F
Humidity 47%
Rainfall in
Snow Depth Not available.
UV 5 out of 12
Pollen 3.80 out of 12
Air Quality Not available.
Flu Activity Not available.
METAR KLGU 061751Z AUTO 00000KT 10SM CLR 05/M06 A3047 RMK AO2 SLP328 T00501061 10050 21056 50006

More Conditions Fewer Conditions

Pressure 30.50 in
Visibility 10.0 miles
Clouds Clear
Windchill 42 °F
Dew Point 23 °F
Humidity 47%
Rainfall in
Snow Depth Not available.
UV 5 out of 12
Pollen 3.80 out of 12
Air Quality Not available.
Flu Activity Not available.
METAR KLGU 061751Z AUTO 00000KT 10SM CLR 05/M06 A3047 RMK AO2 SLP328 T00501061 10050 21056 50006

More Conditions Fewer Conditions

10-Day Weather Forecast

Almanac

Astronomy

Mar. 06, 2015 Rise Set
Actual Time
Civil Twilight
Nautical Twilight
Astronomical Twilight
Moon
Length of Visible Light
Length of Day
Tomorrow will be .
, % of the Moon is Illuminated

Today's Extremes

State Highs State Lows

Community

WunderPhotos

Upload Photos

1,803,359 photos uploaded!

WunderBlogs® & News

Nearby

Air Quality

  Air Quality AQ Index Pollutant
Not available.

Snow Depth

Station Depth Elevation

Earthquake Activity

City Distance Mag. Time & Date
Minimum magnitude displayed is 2.5.

Coastal Water Temperatures

Place Temperature

Nearby Weather Stations